createdAt,value
2016-08-22T16:11:44.447Z,25.11
2016-08-22T16:11:50.621Z,25.14
2016-08-22T16:12:04.275Z,25.06
2016-08-22T16:12:18.279Z,25.03
2016-08-22T16:12:31.282Z,25.12
2016-08-22T16:12:45.372Z,25
2016-08-22T16:12:59.430Z,25.03
2016-08-22T16:13:13.301Z,24.96
2016-08-22T16:13:26.215Z,24.97
2016-08-22T16:13:39.383Z,24.89
2016-08-22T16:13:51.344Z,25.01
2016-08-22T16:15:01.182Z,24.94
2016-08-22T16:15:13.375Z,24.97
2016-08-22T16:15:24.906Z,24.92
2016-08-22T16:15:37.086Z,24.88
2016-08-22T16:15:49.536Z,24.94
2016-08-22T16:16:01.704Z,24.88
2016-08-22T16:16:13.912Z,24.96
2016-08-22T16:16:25.346Z,24.92
2016-08-22T16:16:36.797Z,24.96
2016-08-22T16:16:48.970Z,24.82
2016-08-22T16:17:01.183Z,24.93
2016-08-22T16:17:12.668Z,24.97
2016-08-22T16:17:24.895Z,24.97
2016-08-22T16:17:37.109Z,24.96
2016-08-22T16:17:49.282Z,24.93
2016-08-22T16:18:02.187Z,24.97
2016-08-22T16:18:14.353Z,24.96
2016-08-22T16:18:27.251Z,24.97
2016-08-22T16:18:40.178Z,24.92
2016-08-22T16:18:52.532Z,24.85
2016-08-22T16:19:05.546Z,24.77
2016-08-22T16:19:17.722Z,24.88
2016-08-22T16:19:29.161Z,24.79
2016-08-22T16:19:42.074Z,24.78
2016-08-22T16:19:54.231Z,24.66
2016-08-22T16:20:07.148Z,24.77
2016-08-22T16:20:19.341Z,24.75
2016-08-22T16:20:31.513Z,24.78
2016-08-22T16:20:44.436Z,24.77
2016-08-22T16:20:58.090Z,24.75
2016-08-22T16:21:10.271Z,24.82
2016-08-22T16:21:22.495Z,24.89
2016-08-22T16:21:35.408Z,24.94
2016-08-22T16:21:47.573Z,24.94
